George, George Airport (FAGG)

NameGeorge Airport
CityGeorge
CountrySouth Africa
ICAOFAGG
IATAGRJ
Altitude195 m
CoordinatesGoogle Map
Live Air TrafficLiveATC.net
METARFAGG 251700Z 10009KT 9999 FEW025 17/15 Q1019
2020-04-25 17:00:00 Wind: East (100°) 4.63 m/s - Visibility: > 10000 m - Temperature: 17 °C - Dew point: 15 °C - Humidity: 88.1% - Pressure: 1019 hPa
Statistics

The table below shows the detailed information of all flights to/from George, George Airport (FAGG).